sensor_id;sensor_type;location;lat;lon;timestamp;temperature;humidity
14924;DHT22;7554;43.600;1.480;2023-02-23T00:01:34;10.30;1.00
14924;DHT22;7554;43.600;1.480;2023-02-23T00:04:02;10.30;1.00
14924;DHT22;7554;43.600;1.480;2023-02-23T00:06:33;10.40;1.00
14924;DHT22;7554;43.600;1.480;2023-02-23T00:09:02;10.50;1.00
14924;DHT22;7554;43.600;1.480;2023-02-23T00:11:37;10.50;1.00
14924;DHT22;7554;43.600;1.480;2023-02-23T00:14:04;10.50;1.00
14924;DHT22;7554;43.600;1.480;2023-02-23T00:16:33;10.50;1.00
14924;DHT22;7554;43.600;1.480;2023-02-23T00:19:02;10.50;1.00
14924;DHT22;7554;43.600;1.480;2023-02-23T00:21:34;10.50;1.00
14924;DHT22;7554;43.600;1.480;2023-02-23T00:24:03;10.50;1.00
14924;DHT22;7554;43.600;1.480;2023-02-23T00:26:32;10.50;1.00
14924;DHT22;7554;43.600;1.480;2023-02-23T00:29:01;10.50;1.00
14924;DHT22;7554;43.600;1.480;2023-02-23T00:31:29;10.50;1.00
14924;DHT22;7554;43.600;1.480;2023-02-23T00:33:59;10.40;20.30
14924;DHT22;7554;43.600;1.480;2023-02-23T00:36:29;10.20;1.00
14924;DHT22;7554;43.600;1.480;2023-02-23T00:39:01;10.00;1.00
14924;DHT22;7554;43.600;1.480;2023-02-23T00:41:31;10.10;1.00
14924;DHT22;7554;43.600;1.480;2023-02-23T00:43:59;10.10;1.00
14924;DHT22;7554;43.600;1.480;2023-02-23T00:46:28;10.10;1.00
14924;DHT22;7554;43.600;1.480;2023-02-23T00:48:57;10.00;1.00
14924;DHT22;7554;43.600;1.480;2023-02-23T00:51:27;10.00;1.00
14924;DHT22;7554;43.600;1.480;2023-02-23T00:53:56;10.00;1.00
14924;DHT22;7554;43.600;1.480;2023-02-23T00:56:26;10.00;1.00
14924;DHT22;7554;43.600;1.480;2023-02-23T00:58:53;10.00;1.00
14924;DHT22;7554;43.600;1.480;2023-02-23T01:01:22;10.00;1.00
14924;DHT22;7554;43.600;1.480;2023-02-23T01:03:49;10.00;1.00
14924;DHT22;7554;43.600;1.480;2023-02-23T01:06:18;9.90;1.00
14924;DHT22;7554;43.600;1.480;2023-02-23T01:08:47;10.00;1.00
14924;DHT22;7554;43.600;1.480;2023-02-23T01:11:17;9.90;1.00
14924;DHT22;7554;43.600;1.480;2023-02-23T01:13:48;10.00;1.00
14924;DHT22;7554;43.600;1.480;2023-02-23T01:16:19;9.90;1.00
14924;DHT22;7554;43.600;1.480;2023-02-23T01:18:47;9.90;1.00
14924;DHT22;7554;43.600;1.480;2023-02-23T01:21:16;9.90;1.00
14924;DHT22;7554;43.600;1.480;2023-02-23T01:23:43;9.90;1.00
14924;DHT22;7554;43.600;1.480;2023-02-23T01:26:15;9.90;1.00
14924;DHT22;7554;43.600;1.480;2023-02-23T01:28:48;9.90;1.00
14924;DHT22;7554;43.600;1.480;2023-02-23T01:31:15;9.90;1.00
14924;DHT22;7554;43.600;1.480;2023-02-23T01:33:44;9.90;1.00
14924;DHT22;7554;43.600;1.480;2023-02-23T01:36:12;9.80;1.00
14924;DHT22;7554;43.600;1.480;2023-02-23T01:38:40;9.80;1.00
14924;DHT22;7554;43.600;1.480;2023-02-23T01:41:07;9.90;1.00
14924;DHT22;7554;43.600;1.480;2023-02-23T01:43:35;9.90;1.00
14924;DHT22;7554;43.600;1.480;2023-02-23T01:46:03;9.80;1.00
14924;DHT22;7554;43.600;1.480;2023-02-23T01:48:34;9.80;1.00
14924;DHT22;7554;43.600;1.480;2023-02-23T01:51:05;9.80;1.00
14924;DHT22;7554;43.600;1.480;2023-02-23T01:53:36;9.70;1.00
14924;DHT22;7554;43.600;1.480;2023-02-23T01:56:07;9.70;1.00
14924;DHT22;7554;43.600;1.480;2023-02-23T01:58:38;9.60;1.00
14924;DHT22;7554;43.600;1.480;2023-02-23T02:01:10;9.40;1.00
14924;DHT22;7554;43.600;1.480;2023-02-23T02:03:40;9.40;1.00
14924;DHT22;7554;43.600;1.480;2023-02-23T02:06:11;9.40;1.00
14924;DHT22;7554;43.600;1.480;2023-02-23T02:08:42;9.40;1.00
14924;DHT22;7554;43.600;1.480;2023-02-23T02:11:11;9.30;1.00
14924;DHT22;7554;43.600;1.480;2023-02-23T02:13:52;9.30;1.00
14924;DHT22;7554;43.600;1.480;2023-02-23T02:19:50;9.20;1.00
14924;DHT22;7554;43.600;1.480;2023-02-23T02:22:54;9.20;1.00
14924;DHT22;7554;43.600;1.480;2023-02-23T02:25:40;9.30;1.00
14924;DHT22;7554;43.600;1.480;2023-02-23T02:28:40;9.30;1.00
14924;DHT22;7554;43.600;1.480;2023-02-23T02:34:32;9.40;1.00
14924;DHT22;7554;43.600;1.480;2023-02-23T02:37:39;9.50;1.00
14924;DHT22;7554;43.600;1.480;2023-02-23T02:40:18;9.50;1.00
14924;DHT22;7554;43.600;1.480;2023-02-23T02:42:59;9.50;1.00
14924;DHT22;7554;43.600;1.480;2023-02-23T02:45:39;9.60;1.00
14924;DHT22;7554;43.600;1.480;2023-02-23T02:48:14;9.50;1.00
14924;DHT22;7554;43.600;1.480;2023-02-23T02:50:46;9.50;1.00
14924;DHT22;7554;43.600;1.480;2023-02-23T02:53:24;9.50;1.00
14924;DHT22;7554;43.600;1.480;2023-02-23T02:55:53;9.50;1.00
14924;DHT22;7554;43.600;1.480;2023-02-23T02:58:24;9.50;1.00
14924;DHT22;7554;43.600;1.480;2023-02-23T03:00:52;9.40;1.00
14924;DHT22;7554;43.600;1.480;2023-02-23T03:03:39;9.40;1.00
14924;DHT22;7554;43.600;1.480;2023-02-23T03:06:28;9.40;1.00
14924;DHT22;7554;43.600;1.480;2023-02-23T03:09:24;9.40;1.00
14924;DHT22;7554;43.600;1.480;2023-02-23T03:12:20;9.30;1.00
14924;DHT22;7554;43.600;1.480;2023-02-23T03:15:16;9.20;1.00
14924;DHT22;7554;43.600;1.480;2023-02-23T03:18:16;9.20;1.00
14924;DHT22;7554;43.600;1.480;2023-02-23T03:21:09;9.20;1.00
14924;DHT22;7554;43.600;1.480;2023-02-23T03:24:04;9.10;1.00
14924;DHT22;7554;43.600;1.480;2023-02-23T03:26:55;9.10;1.00
14924;DHT22;7554;43.600;1.480;2023-02-23T03:29:45;9.10;1.00
14924;DHT22;7554;43.600;1.480;2023-02-23T03:32:36;9.00;1.00
14924;DHT22;7554;43.600;1.480;2023-02-23T03:35:27;9.00;1.00
14924;DHT22;7554;43.600;1.480;2023-02-23T03:38:18;8.90;1.00
14924;DHT22;7554;43.600;1.480;2023-02-23T03:41:06;8.90;1.00
14924;DHT22;7554;43.600;1.480;2023-02-23T03:43:57;8.80;1.00
14924;DHT22;7554;43.600;1.480;2023-02-23T03:46:44;8.80;1.00
14924;DHT22;7554;43.600;1.480;2023-02-23T03:49:33;8.70;1.00
14924;DHT22;7554;43.600;1.480;2023-02-23T03:52:32;8.70;1.00
14924;DHT22;7554;43.600;1.480;2023-02-23T03:55:21;8.70;1.00
14924;DHT22;7554;43.600;1.480;2023-02-23T03:58:12;8.70;1.00
14924;DHT22;7554;43.600;1.480;2023-02-23T04:01:01;8.70;1.00
14924;DHT22;7554;43.600;1.480;2023-02-23T04:03:48;8.60;1.00
14924;DHT22;7554;43.600;1.480;2023-02-23T04:06:37;8.40;1.00
14924;DHT22;7554;43.600;1.480;2023-02-23T04:09:23;8.50;1.00
14924;DHT22;7554;43.600;1.480;2023-02-23T04:12:12;8.50;1.00
14924;DHT22;7554;43.600;1.480;2023-02-23T04:15:03;8.70;1.00
14924;DHT22;7554;43.600;1.480;2023-02-23T04:17:35;8.60;1.00
14924;DHT22;7554;43.600;1.480;2023-02-23T04:20:04;8.60;1.00
14924;DHT22;7554;43.600;1.480;2023-02-23T04:22:33;8.30;1.00
14924;DHT22;7554;43.600;1.480;2023-02-23T04:25:00;8.30;1.00
14924;DHT22;7554;43.600;1.480;2023-02-23T04:27:28;8.40;1.00
14924;DHT22;7554;43.600;1.480;2023-02-23T04:29:55;8.40;1.00
14924;DHT22;7554;43.600;1.480;2023-02-23T04:32:23;8.20;1.00
14924;DHT22;7554;43.600;1.480;2023-02-23T04:34:52;8.10;1.00
14924;DHT22;7554;43.600;1.480;2023-02-23T04:37:19;8.20;1.00
14924;DHT22;7554;43.600;1.480;2023-02-23T04:39:46;8.20;1.00
14924;DHT22;7554;43.600;1.480;2023-02-23T04:42:15;8.00;1.00
14924;DHT22;7554;43.600;1.480;2023-02-23T04:44:43;8.20;1.00
14924;DHT22;7554;43.600;1.480;2023-02-23T04:47:10;8.20;1.00
14924;DHT22;7554;43.600;1.480;2023-02-23T04:49:38;8.20;1.00
14924;DHT22;7554;43.600;1.480;2023-02-23T04:52:06;8.20;1.00
14924;DHT22;7554;43.600;1.480;2023-02-23T04:54:36;8.20;1.00
14924;DHT22;7554;43.600;1.480;2023-02-23T04:57:04;8.20;1.00
14924;DHT22;7554;43.600;1.480;2023-02-23T04:59:32;8.10;1.00
14924;DHT22;7554;43.600;1.480;2023-02-23T05:02:00;8.10;1.00
14924;DHT22;7554;43.600;1.480;2023-02-23T05:04:27;8.10;1.00
14924;DHT22;7554;43.600;1.480;2023-02-23T05:06:55;8.00;1.00
14924;DHT22;7554;43.600;1.480;2023-02-23T05:09:24;8.10;1.00
14924;DHT22;7554;43.600;1.480;2023-02-23T05:11:51;8.20;1.00
14924;DHT22;7554;43.600;1.480;2023-02-23T05:14:20;8.20;1.00
14924;DHT22;7554;43.600;1.480;2023-02-23T05:16:47;8.20;1.00
14924;DHT22;7554;43.600;1.480;2023-02-23T05:19:14;8.20;1.00
14924;DHT22;7554;43.600;1.480;2023-02-23T05:21:42;8.10;1.00
14924;DHT22;7554;43.600;1.480;2023-02-23T05:24:10;8.00;1.00
14924;DHT22;7554;43.600;1.480;2023-02-23T05:26:38;8.00;1.00
14924;DHT22;7554;43.600;1.480;2023-02-23T05:29:06;7.90;1.00
14924;DHT22;7554;43.600;1.480;2023-02-23T05:31:33;7.80;1.00
14924;DHT22;7554;43.600;1.480;2023-02-23T05:34:01;7.90;1.00
14924;DHT22;7554;43.600;1.480;2023-02-23T05:36:28;8.00;1.00
14924;DHT22;7554;43.600;1.480;2023-02-23T05:38:55;8.00;1.00
14924;DHT22;7554;43.600;1.480;2023-02-23T05:41:23;8.10;1.00
14924;DHT22;7554;43.600;1.480;2023-02-23T05:43:53;8.20;1.00
14924;DHT22;7554;43.600;1.480;2023-02-23T05:46:22;8.00;1.00
14924;DHT22;7554;43.600;1.480;2023-02-23T05:48:50;7.80;99.90
14924;DHT22;7554;43.600;1.480;2023-02-23T05:51:18;8.00;99.90
14924;DHT22;7554;43.600;1.480;2023-02-23T05:53:45;7.80;99.90
14924;DHT22;7554;43.600;1.480;2023-02-23T05:56:15;7.10;1.00
14924;DHT22;7554;43.600;1.480;2023-02-23T05:58:46;7.50;99.90
14924;DHT22;7554;43.600;1.480;2023-02-23T06:01:15;7.60;99.90
14924;DHT22;7554;43.600;1.480;2023-02-23T06:03:42;7.80;1.00
14924;DHT22;7554;43.600;1.480;2023-02-23T06:06:10;7.80;1.00
14924;DHT22;7554;43.600;1.480;2023-02-23T06:08:38;7.60;1.00
14924;DHT22;7554;43.600;1.480;2023-02-23T06:11:06;7.30;1.00
14924;DHT22;7554;43.600;1.480;2023-02-23T06:13:33;7.50;1.00
14924;DHT22;7554;43.600;1.480;2023-02-23T06:16:01;7.50;1.00
14924;DHT22;7554;43.600;1.480;2023-02-23T06:18:30;7.40;1.00
14924;DHT22;7554;43.600;1.480;2023-02-23T06:20:59;7.30;1.00
14924;DHT22;7554;43.600;1.480;2023-02-23T06:23:27;7.50;1.00
14924;DHT22;7554;43.600;1.480;2023-02-23T06:25:54;7.40;1.00
14924;DHT22;7554;43.600;1.480;2023-02-23T06:28:23;7.20;99.90
14924;DHT22;7554;43.600;1.480;2023-02-23T06:30:51;7.10;99.90
14924;DHT22;7554;43.600;1.480;2023-02-23T06:33:19;7.10;99.90
14924;DHT22;7554;43.600;1.480;2023-02-23T06:35:48;7.10;57.20
14924;DHT22;7554;43.600;1.480;2023-02-23T06:38:16;7.30;74.90
14924;DHT22;7554;43.600;1.480;2023-02-23T06:40:43;7.40;99.90
14924;DHT22;7554;43.600;1.480;2023-02-23T06:43:11;7.30;99.90
14924;DHT22;7554;43.600;1.480;2023-02-23T06:45:38;7.50;99.90
14924;DHT22;7554;43.600;1.480;2023-02-23T06:48:07;7.50;99.90
14924;DHT22;7554;43.600;1.480;2023-02-23T06:50:35;7.60;1.00
14924;DHT22;7554;43.600;1.480;2023-02-23T06:53:04;7.50;1.00
14924;DHT22;7554;43.600;1.480;2023-02-23T06:55:31;7.70;1.00
14924;DHT22;7554;43.600;1.480;2023-02-23T06:57:59;7.60;1.00
14924;DHT22;7554;43.600;1.480;2023-02-23T07:00:26;7.70;1.00
14924;DHT22;7554;43.600;1.480;2023-02-23T07:02:56;7.80;1.00
14924;DHT22;7554;43.600;1.480;2023-02-23T07:05:24;8.00;1.00
14924;DHT22;7554;43.600;1.480;2023-02-23T07:07:52;8.00;99.90
14924;DHT22;7554;43.600;1.480;2023-02-23T07:10:21;8.00;99.90
14924;DHT22;7554;43.600;1.480;2023-02-23T07:12:48;8.20;99.90
14924;DHT22;7554;43.600;1.480;2023-02-23T07:15:15;8.20;99.90
14924;DHT22;7554;43.600;1.480;2023-02-23T07:17:45;8.20;99.90
14924;DHT22;7554;43.600;1.480;2023-02-23T07:20:14;8.30;99.90
14924;DHT22;7554;43.600;1.480;2023-02-23T07:22:42;8.30;99.90
14924;DHT22;7554;43.600;1.480;2023-02-23T07:25:09;8.40;1.00
14924;DHT22;7554;43.600;1.480;2023-02-23T07:27:38;8.40;1.00
14924;DHT22;7554;43.600;1.480;2023-02-23T07:30:08;8.60;19.50
14924;DHT22;7554;43.600;1.480;2023-02-23T07:32:35;8.80;1.00
14924;DHT22;7554;43.600;1.480;2023-02-23T07:35:03;9.10;1.00
14924;DHT22;7554;43.600;1.480;2023-02-23T07:37:31;9.30;99.90
14924;DHT22;7554;43.600;1.480;2023-02-23T07:39:58;9.50;99.90
14924;DHT22;7554;43.600;1.480;2023-02-23T07:42:26;9.60;1.00
14924;DHT22;7554;43.600;1.480;2023-02-23T07:44:55;9.50;1.00
14924;DHT22;7554;43.600;1.480;2023-02-23T07:47:22;9.50;99.90
14924;DHT22;7554;43.600;1.480;2023-02-23T07:49:56;9.40;1.00
14924;DHT22;7554;43.600;1.480;2023-02-23T07:52:24;9.40;99.90
14924;DHT22;7554;43.600;1.480;2023-02-23T07:54:52;9.40;1.00
14924;DHT22;7554;43.600;1.480;2023-02-23T07:57:19;9.40;1.00
14924;DHT22;7554;43.600;1.480;2023-02-23T07:59:47;9.50;99.90
14924;DHT22;7554;43.600;1.480;2023-02-23T08:02:16;9.50;1.00
14924;DHT22;7554;43.600;1.480;2023-02-23T08:04:43;9.50;99.90
14924;DHT22;7554;43.600;1.480;2023-02-23T08:07:11;9.50;1.00
14924;DHT22;7554;43.600;1.480;2023-02-23T08:09:38;9.50;1.00
14924;DHT22;7554;43.600;1.480;2023-02-23T08:12:07;9.60;99.90
14924;DHT22;7554;43.600;1.480;2023-02-23T08:14:35;9.50;19.40
14924;DHT22;7554;43.600;1.480;2023-02-23T08:17:02;9.60;1.00
14924;DHT22;7554;43.600;1.480;2023-02-23T08:19:31;9.50;1.00
14924;DHT22;7554;43.600;1.480;2023-02-23T08:21:59;9.60;1.00
14924;DHT22;7554;43.600;1.480;2023-02-23T08:24:26;9.70;1.00
14924;DHT22;7554;43.600;1.480;2023-02-23T08:26:55;9.80;1.00
14924;DHT22;7554;43.600;1.480;2023-02-23T08:29:23;9.80;1.00
14924;DHT22;7554;43.600;1.480;2023-02-23T08:31:50;9.90;1.00
14924;DHT22;7554;43.600;1.480;2023-02-23T08:34:18;9.90;1.00
14924;DHT22;7554;43.600;1.480;2023-02-23T08:36:47;9.90;1.00
14924;DHT22;7554;43.600;1.480;2023-02-23T08:39:15;9.90;1.00
14924;DHT22;7554;43.600;1.480;2023-02-23T08:41:42;9.90;1.00
14924;DHT22;7554;43.600;1.480;2023-02-23T08:44:10;9.80;1.00
14924;DHT22;7554;43.600;1.480;2023-02-23T08:46:37;9.90;1.00
14924;DHT22;7554;43.600;1.480;2023-02-23T08:49:04;9.90;99.90
14924;DHT22;7554;43.600;1.480;2023-02-23T08:51:35;10.00;99.90
14924;DHT22;7554;43.600;1.480;2023-02-23T08:54:04;9.90;99.90
14924;DHT22;7554;43.600;1.480;2023-02-23T08:56:37;10.00;99.90
14924;DHT22;7554;43.600;1.480;2023-02-23T08:59:04;10.00;99.90
14924;DHT22;7554;43.600;1.480;2023-02-23T09:01:32;9.90;99.90
14924;DHT22;7554;43.600;1.480;2023-02-23T09:03:59;9.90;99.90
14924;DHT22;7554;43.600;1.480;2023-02-23T09:06:27;9.80;99.90
14924;DHT22;7554;43.600;1.480;2023-02-23T09:08:54;9.80;99.90
14924;DHT22;7554;43.600;1.480;2023-02-23T09:11:23;9.80;99.90
14924;DHT22;7554;43.600;1.480;2023-02-23T09:13:51;9.80;99.90
14924;DHT22;7554;43.600;1.480;2023-02-23T09:16:18;9.80;99.90
14924;DHT22;7554;43.600;1.480;2023-02-23T09:18:45;9.80;99.90
14924;DHT22;7554;43.600;1.480;2023-02-23T09:21:16;9.90;99.90
14924;DHT22;7554;43.600;1.480;2023-02-23T09:23:46;9.90;99.90
14924;DHT22;7554;43.600;1.480;2023-02-23T09:26:16;9.90;99.90
14924;DHT22;7554;43.600;1.480;2023-02-23T09:28:45;9.90;99.90
14924;DHT22;7554;43.600;1.480;2023-02-23T09:31:14;9.90;99.90
14924;DHT22;7554;43.600;1.480;2023-02-23T09:33:42;9.80;99.90
14924;DHT22;7554;43.600;1.480;2023-02-23T09:36:11;9.90;99.90
14924;DHT22;7554;43.600;1.480;2023-02-23T09:38:41;9.90;99.90
14924;DHT22;7554;43.600;1.480;2023-02-23T09:41:29;9.90;99.90
14924;DHT22;7554;43.600;1.480;2023-02-23T09:44:04;10.00;94.30
14924;DHT22;7554;43.600;1.480;2023-02-23T09:46:39;10.00;80.20
14924;DHT22;7554;43.600;1.480;2023-02-23T09:49:14;10.00;60.50
14924;DHT22;7554;43.600;1.480;2023-02-23T09:51:46;9.90;51.20
14924;DHT22;7554;43.600;1.480;2023-02-23T09:54:17;9.80;37.20
14924;DHT22;7554;43.600;1.480;2023-02-23T09:56:46;9.80;29.10
14924;DHT22;7554;43.600;1.480;2023-02-23T09:59:18;9.80;29.20
14924;DHT22;7554;43.600;1.480;2023-02-23T10:01:54;9.60;16.40
14924;DHT22;7554;43.600;1.480;2023-02-23T10:04:27;9.60;9.60
14924;DHT22;7554;43.600;1.480;2023-02-23T10:07:00;9.50;1.00
14924;DHT22;7554;43.600;1.480;2023-02-23T10:09:47;9.60;1.00
14924;DHT22;7554;43.600;1.480;2023-02-23T10:12:27;9.50;1.00
14924;DHT22;7554;43.600;1.480;2023-02-23T10:15:11;9.30;1.00
14924;DHT22;7554;43.600;1.480;2023-02-23T10:17:44;9.30;1.00
14924;DHT22;7554;43.600;1.480;2023-02-23T10:20:20;9.20;1.00
14924;DHT22;7554;43.600;1.480;2023-02-23T10:22:49;9.20;1.00
14924;DHT22;7554;43.600;1.480;2023-02-23T10:25:20;9.10;1.00
14924;DHT22;7554;43.600;1.480;2023-02-23T10:27:50;9.10;1.00
14924;DHT22;7554;43.600;1.480;2023-02-23T10:30:21;9.20;1.00
14924;DHT22;7554;43.600;1.480;2023-02-23T10:32:54;9.10;1.00
14924;DHT22;7554;43.600;1.480;2023-02-23T10:35:27;8.90;1.00
14924;DHT22;7554;43.600;1.480;2023-02-23T10:37:55;8.90;1.00
14924;DHT22;7554;43.600;1.480;2023-02-23T10:40:25;8.80;1.00
14924;DHT22;7554;43.600;1.480;2023-02-23T10:42:55;8.90;1.00
14924;DHT22;7554;43.600;1.480;2023-02-23T10:45:26;8.80;1.00
14924;DHT22;7554;43.600;1.480;2023-02-23T10:47:57;8.70;1.00
14924;DHT22;7554;43.600;1.480;2023-02-23T10:50:25;8.60;1.00
14924;DHT22;7554;43.600;1.480;2023-02-23T10:52:57;8.60;1.00
14924;DHT22;7554;43.600;1.480;2023-02-23T10:55:27;8.70;1.00
14924;DHT22;7554;43.600;1.480;2023-02-23T10:58:04;8.70;7.20
14924;DHT22;7554;43.600;1.480;2023-02-23T11:00:38;8.70;11.20
14924;DHT22;7554;43.600;1.480;2023-02-23T11:03:17;8.70;1.00
14924;DHT22;7554;43.600;1.480;2023-02-23T11:05:46;8.70;1.00
14924;DHT22;7554;43.600;1.480;2023-02-23T11:08:25;8.80;1.00
14924;DHT22;7554;43.600;1.480;2023-02-23T11:11:05;8.60;1.00
14924;DHT22;7554;43.600;1.480;2023-02-23T11:13:36;8.60;1.00
14924;DHT22;7554;43.600;1.480;2023-02-23T11:16:09;8.70;1.00
14924;DHT22;7554;43.600;1.480;2023-02-23T11:18:40;8.70;1.00
14924;DHT22;7554;43.600;1.480;2023-02-23T11:21:12;8.60;1.00
14924;DHT22;7554;43.600;1.480;2023-02-23T11:23:43;8.60;9.50
14924;DHT22;7554;43.600;1.480;2023-02-23T11:26:34;8.60;5.20
14924;DHT22;7554;43.600;1.480;2023-02-23T11:29:10;8.60;1.00
14924;DHT22;7554;43.600;1.480;2023-02-23T11:31:40;8.60;1.00
14924;DHT22;7554;43.600;1.480;2023-02-23T11:34:21;8.60;1.00
14924;DHT22;7554;43.600;1.480;2023-02-23T11:36:58;8.70;1.00
14924;DHT22;7554;43.600;1.480;2023-02-23T11:39:26;8.60;1.00
14924;DHT22;7554;43.600;1.480;2023-02-23T11:42:13;8.60;1.00
14924;DHT22;7554;43.600;1.480;2023-02-23T11:44:40;8.60;1.00
14924;DHT22;7554;43.600;1.480;2023-02-23T11:47:16;8.40;1.00
14924;DHT22;7554;43.600;1.480;2023-02-23T11:49:46;8.50;1.00
14924;DHT22;7554;43.600;1.480;2023-02-23T11:52:16;8.50;20.30
14924;DHT22;7554;43.600;1.480;2023-02-23T11:54:51;8.40;24.20
14924;DHT22;7554;43.600;1.480;2023-02-23T11:57:20;8.50;31.70
14924;DHT22;7554;43.600;1.480;2023-02-23T11:59:48;8.50;63.20
14924;DHT22;7554;43.600;1.480;2023-02-23T12:02:21;8.60;92.60
14924;DHT22;7554;43.600;1.480;2023-02-23T12:04:52;8.70;97.60
14924;DHT22;7554;43.600;1.480;2023-02-23T12:07:32;8.60;94.30
14924;DHT22;7554;43.600;1.480;2023-02-23T12:10:14;8.70;95.20
14924;DHT22;7554;43.600;1.480;2023-02-23T12:12:49;8.70;91.30
14924;DHT22;7554;43.600;1.480;2023-02-23T12:15:24;8.70;79.90
14924;DHT22;7554;43.600;1.480;2023-02-23T12:17:59;8.60;43.60
14924;DHT22;7554;43.600;1.480;2023-02-23T12:20:31;8.60;16.90
14924;DHT22;7554;43.600;1.480;2023-02-23T12:23:04;8.70;1.00
14924;DHT22;7554;43.600;1.480;2023-02-23T12:25:35;8.70;1.00
14924;DHT22;7554;43.600;1.480;2023-02-23T12:28:11;8.80;1.00
14924;DHT22;7554;43.600;1.480;2023-02-23T12:30:42;8.70;1.00
14924;DHT22;7554;43.600;1.480;2023-02-23T12:33:16;8.80;1.00
14924;DHT22;7554;43.600;1.480;2023-02-23T12:35:50;8.90;1.00
14924;DHT22;7554;43.600;1.480;2023-02-23T12:38:24;8.90;1.00
14924;DHT22;7554;43.600;1.480;2023-02-23T12:41:02;8.80;1.00
14924;DHT22;7554;43.600;1.480;2023-02-23T12:43:36;8.80;1.00
14924;DHT22;7554;43.600;1.480;2023-02-23T12:46:09;8.80;1.00
14924;DHT22;7554;43.600;1.480;2023-02-23T12:48:45;8.70;1.00
14924;DHT22;7554;43.600;1.480;2023-02-23T12:51:21;8.80;1.00
14924;DHT22;7554;43.600;1.480;2023-02-23T12:53:49;8.80;1.00
14924;DHT22;7554;43.600;1.480;2023-02-23T12:56:53;8.70;1.00
14924;DHT22;7554;43.600;1.480;2023-02-23T13:02:22;8.90;1.00
14924;DHT22;7554;43.600;1.480;2023-02-23T13:05:13;8.90;1.00
14924;DHT22;7554;43.600;1.480;2023-02-23T13:07:46;8.90;1.00
14924;DHT22;7554;43.600;1.480;2023-02-23T13:10:23;9.00;1.00
14924;DHT22;7554;43.600;1.480;2023-02-23T13:12:58;9.00;1.00
14924;DHT22;7554;43.600;1.480;2023-02-23T13:15:46;9.00;1.00
14924;DHT22;7554;43.600;1.480;2023-02-23T13:18:22;8.90;1.00
14924;DHT22;7554;43.600;1.480;2023-02-23T13:20:54;9.00;1.00
14924;DHT22;7554;43.600;1.480;2023-02-23T13:23:30;9.00;1.00
14924;DHT22;7554;43.600;1.480;2023-02-23T13:26:05;9.00;1.00
14924;DHT22;7554;43.600;1.480;2023-02-23T13:28:52;9.00;1.00
14924;DHT22;7554;43.600;1.480;2023-02-23T13:31:25;8.90;1.00
14924;DHT22;7554;43.600;1.480;2023-02-23T13:33:55;8.90;1.00
14924;DHT22;7554;43.600;1.480;2023-02-23T13:36:25;9.00;1.00
14924;DHT22;7554;43.600;1.480;2023-02-23T13:39:17;8.90;1.00
14924;DHT22;7554;43.600;1.480;2023-02-23T13:41:51;9.00;1.00
14924;DHT22;7554;43.600;1.480;2023-02-23T13:44:26;9.00;1.00
14924;DHT22;7554;43.600;1.480;2023-02-23T13:47:00;9.00;1.00
14924;DHT22;7554;43.600;1.480;2023-02-23T13:49:36;9.10;1.00
14924;DHT22;7554;43.600;1.480;2023-02-23T13:52:20;9.00;1.00
14924;DHT22;7554;43.600;1.480;2023-02-23T13:54:53;9.00;1.00
14924;DHT22;7554;43.600;1.480;2023-02-23T13:57:22;8.90;1.00
14924;DHT22;7554;43.600;1.480;2023-02-23T13:59:50;8.90;1.00
14924;DHT22;7554;43.600;1.480;2023-02-23T14:02:30;8.80;1.00
14924;DHT22;7554;43.600;1.480;2023-02-23T14:05:02;8.90;1.00
14924;DHT22;7554;43.600;1.480;2023-02-23T14:07:32;9.00;1.00
14924;DHT22;7554;43.600;1.480;2023-02-23T14:10:06;9.10;1.00
14924;DHT22;7554;43.600;1.480;2023-02-23T14:12:38;8.90;1.00
14924;DHT22;7554;43.600;1.480;2023-02-23T14:15:28;8.90;1.00
14924;DHT22;7554;43.600;1.480;2023-02-23T14:18:28;8.80;1.00
14924;DHT22;7554;43.600;1.480;2023-02-23T14:21:00;8.90;1.00
14924;DHT22;7554;43.600;1.480;2023-02-23T14:23:38;8.90;1.00
14924;DHT22;7554;43.600;1.480;2023-02-23T14:26:34;9.00;1.00
14924;DHT22;7554;43.600;1.480;2023-02-23T14:29:29;9.00;1.00
14924;DHT22;7554;43.600;1.480;2023-02-23T14:32:03;9.10;1.00
14924;DHT22;7554;43.600;1.480;2023-02-23T14:34:53;9.00;1.00
14924;DHT22;7554;43.600;1.480;2023-02-23T14:37:28;9.00;1.00
14924;DHT22;7554;43.600;1.480;2023-02-23T14:40:05;9.00;1.00
14924;DHT22;7554;43.600;1.480;2023-02-23T14:42:37;8.90;1.00
14924;DHT22;7554;43.600;1.480;2023-02-23T14:45:15;8.80;1.00
14924;DHT22;7554;43.600;1.480;2023-02-23T14:47:45;8.70;1.00
14924;DHT22;7554;43.600;1.480;2023-02-23T14:50:25;8.60;1.00
14924;DHT22;7554;43.600;1.480;2023-02-23T14:52:54;8.60;1.00
14924;DHT22;7554;43.600;1.480;2023-02-23T14:55:25;8.60;1.00
14924;DHT22;7554;43.600;1.480;2023-02-23T14:57:52;8.60;1.00
14924;DHT22;7554;43.600;1.480;2023-02-23T15:00:23;8.60;1.00
14924;DHT22;7554;43.600;1.480;2023-02-23T15:02:55;8.50;1.00
14924;DHT22;7554;43.600;1.480;2023-02-23T15:05:25;8.50;1.00
14924;DHT22;7554;43.600;1.480;2023-02-23T15:07:53;8.40;1.00
14924;DHT22;7554;43.600;1.480;2023-02-23T15:10:28;8.40;1.00
14924;DHT22;7554;43.600;1.480;2023-02-23T15:12:57;8.40;1.00
14924;DHT22;7554;43.600;1.480;2023-02-23T15:15:26;8.40;1.00
14924;DHT22;7554;43.600;1.480;2023-02-23T15:17:58;8.40;1.00
14924;DHT22;7554;43.600;1.480;2023-02-23T15:20:30;8.40;1.00
14924;DHT22;7554;43.600;1.480;2023-02-23T15:23:00;8.40;1.00
14924;DHT22;7554;43.600;1.480;2023-02-23T15:25:37;8.50;1.00
14924;DHT22;7554;43.600;1.480;2023-02-23T15:28:19;8.30;1.00
14924;DHT22;7554;43.600;1.480;2023-02-23T15:30:48;8.40;1.00
14924;DHT22;7554;43.600;1.480;2023-02-23T15:33:17;8.40;1.00
14924;DHT22;7554;43.600;1.480;2023-02-23T15:35:51;8.30;1.00
14924;DHT22;7554;43.600;1.480;2023-02-23T15:38:22;8.30;1.00
14924;DHT22;7554;43.600;1.480;2023-02-23T15:40:56;8.20;1.00
14924;DHT22;7554;43.600;1.480;2023-02-23T15:43:24;8.20;1.00
14924;DHT22;7554;43.600;1.480;2023-02-23T15:45:56;8.20;1.00
14924;DHT22;7554;43.600;1.480;2023-02-23T15:48:39;8.30;1.00
14924;DHT22;7554;43.600;1.480;2023-02-23T15:51:20;8.10;1.00
14924;DHT22;7554;43.600;1.480;2023-02-23T15:53:48;8.10;1.00
14924;DHT22;7554;43.600;1.480;2023-02-23T15:56:23;8.10;13.70
14924;DHT22;7554;43.600;1.480;2023-02-23T15:58:54;8.10;16.20
14924;DHT22;7554;43.600;1.480;2023-02-23T16:01:23;8.00;14.20
14924;DHT22;7554;43.600;1.480;2023-02-23T16:03:58;8.00;5.60
14924;DHT22;7554;43.600;1.480;2023-02-23T16:06:30;8.10;1.00
14924;DHT22;7554;43.600;1.480;2023-02-23T16:09:00;7.90;1.00
14924;DHT22;7554;43.600;1.480;2023-02-23T16:11:34;8.00;1.00
14924;DHT22;7554;43.600;1.480;2023-02-23T16:14:02;7.90;1.00
14924;DHT22;7554;43.600;1.480;2023-02-23T16:16:33;7.90;1.00
14924;DHT22;7554;43.600;1.480;2023-02-23T16:19:02;8.00;32.40
14924;DHT22;7554;43.600;1.480;2023-02-23T16:21:30;7.90;49.40
14924;DHT22;7554;43.600;1.480;2023-02-23T16:23:59;8.00;84.40
14924;DHT22;7554;43.600;1.480;2023-02-23T16:26:38;8.00;99.90
14924;DHT22;7554;43.600;1.480;2023-02-23T16:29:13;8.00;99.90
14924;DHT22;7554;43.600;1.480;2023-02-23T16:31:45;8.00;99.90
14924;DHT22;7554;43.600;1.480;2023-02-23T16:34:25;8.00;99.90
14924;DHT22;7554;43.600;1.480;2023-02-23T16:36:57;8.00;99.90
14924;DHT22;7554;43.600;1.480;2023-02-23T16:39:26;8.00;99.90
14924;DHT22;7554;43.600;1.480;2023-02-23T16:41:57;8.00;99.90
14924;DHT22;7554;43.600;1.480;2023-02-23T16:44:27;7.90;99.90
14924;DHT22;7554;43.600;1.480;2023-02-23T16:47:09;7.90;93.20
14924;DHT22;7554;43.600;1.480;2023-02-23T16:49:37;8.00;34.50
14924;DHT22;7554;43.600;1.480;2023-02-23T16:52:14;7.80;45.40
14924;DHT22;7554;43.600;1.480;2023-02-23T16:54:43;7.90;25.60
14924;DHT22;7554;43.600;1.480;2023-02-23T16:57:19;7.80;21.20
14924;DHT22;7554;43.600;1.480;2023-02-23T16:59:51;7.80;23.30